Monatstabelle

Bitte in den Auwahlmenüs den gewünschte Zeiraum wählen und die Schaltfläche "Anfrage absenden" betätigen. Beginn der Aufzeichnung ist 2007 - Dezember. Vor diesem Zeitraum sind keine Daten verfügbar.

2020 - Oktober

 

Datum Temperatur (°C) Luftdruck (hPa) Luftfeuchte (%) Regen
(l/m²)
Wind (km/h)
avg: min: max: avg: min: max: avg: min: max: avg: max:
01.10.2020 12,3 8,5 19,6 1003,1 1001,7 1007,9 79 56 90 0,0 2,9 10,1
02.10.2020 15,6 7,3 19,6 999,4 998,2 1001,8 77 63 95 0,0 13,0 20,6
03.10.2020 17,8 15,7 23,0 996,9 994,4 998,4 77 56 90 7,8 13,1 22,2
04.10.2020 15,8 13,1 22,3 1001,9 992,3 1005,1 70 45 90 7,5 8,2 19,0
05.10.2020 13,2 10,4 19,4 1005,9 1003,0 1009,1 76 60 86 0,0 3,6 15,9
06.10.2020 13,2 5,5 19,9 1007,3 1005,4 1010,3 75 55 94 0,0 5,1 10,5
07.10.2020 12,5 10,3 15,5 1011,3 1004,7 1014,5 72 58 90 0,8 7,4 15,1
08.10.2020 10,3 7,4 18,0 1019,2 1014,7 1019,8 75 49 86 0,0 5,9 17,5
09.10.2020 13,1 6,7 22,4 1017,4 1016,2 1019,0 78 53 93 0,0 2,4 6,9
10.10.2020 12,0 9,0 19,0 1015,9 1013,8 1017,3 85 69 94 12,1 3,0 9,3
11.10.2020 6,5 4,1 9,7 1014,0 1013,1 1016,6 88 78 92 17,1 5,0 12,1
12.10.2020 7,1 3,9 8,5 1011,0 1009,9 1013,3 79 73 92 6,2 14,2 19,5
13.10.2020 6,1 5,6 7,7 1003,6 1001,8 1009,3 84 75 91 4,2 10,9 22,9
14.10.2020 7,6 5,3 10,9 1004,4 1000,6 1007,4 76 62 84 0,0 2,7 9,5
15.10.2020 6,7 1,5 10,1 1008,8 1007,5 1010,2 88 74 94 7,7 1,9 10,5
16.10.2020 6,6 5,4 8,6 1009,3 1007,8 1010,3 88 79 93 4,0 9,1 14,2
17.10.2020 6,7 5,0 9,7 1012,4 1009,7 1014,6 86 73 93 2,5 4,7 12,9
18.10.2020 6,3 3,0 13,4 1018,0 1014,6 1020,0 83 60 95 1,0 2,2 9,8
19.10.2020 5,8 3,5 10,1 1020,1 1019,4 1021,6 89 81 94 0,0 0,9 3,7
20.10.2020 9,8 1,0 14,1 1016,1 1013,9 1019,8 80 62 95 0,1 14,8 22,9
21.10.2020 6,6 5,1 10,0 1012,6 1011,9 1013,8 91 80 93 0,0 1,9 15,3
22.10.2020 9,1 4,8 15,1 1016,2 1012,9 1017,6 89 77 95 0,0 1,1 5,5
23.10.2020 9,6 5,5 12,1 1012,3 1011,0 1015,5 92 87 95 0,1 0,9 5,1
24.10.2020 10,5 7,7 17,3 1013,6 1011,2 1014,3 90 73 96 1,6 1,6 10,1
25.10.2020 10,1 6,1 15,0 1008,2 1005,9 1013,6 91 84 95 0,0 1,7 7,1
26.10.2020 10,8 5,4 17,2 1003,1 1000,1 1005,7 83 64 96 0,3 4,1 14,6
27.10.2020 8,3 6,4 9,1 1010,3 1005,2 1012,2 91 87 93 3,2 0,9 6,0
28.10.2020 9,6 5,8 16,3 1013,9 1011,4 1017,6 88 70 94 0,0 1,4 9,3
29.10.2020 9,7 5,9 13,6 1016,0 1013,4 1018,6 80 70 95 0,0 3,8 10,5
avg. 10,0 1010,4 83   ---
  Summe Regen: 76,2  
 
Min-Datum 20.10.2020 04.10.2020 04.10.2020 --- ---
Min-Zeit 07:01 05:01 14:14 --- ---
Minimum 1,0 992,3 45 --- ---
 

Max-Datum

03.10.2020 19.10.2020 24.10.2020 11.10.2020 13.10.2020
Max-Zeit 16:01 10:40 09:40 21:38 11:40
Maximum 23,0 1021,6 96 17,1 22,9
 

 

  Letztes Jahr
gleiches Monat
Eistage max < 0°C 0 0
Frosttage min < 0°C 0 0
Sommertage max >=25°C 0 1
Heiße Tage max >=30°C 0 0

 

<<< nach oben >>>